createdAt,value
2023-05-09T00:00:55.846Z,14.23
2023-05-09T00:03:22.825Z,16.03
2023-05-09T00:05:49.880Z,21.80
2023-05-09T00:08:17.082Z,12.57
2023-05-09T00:10:44.106Z,14.97
2023-05-09T00:13:12.231Z,9.27
2023-05-09T00:15:39.415Z,16.40
2023-05-09T00:18:06.673Z,14.83
2023-05-09T00:20:34.173Z,12.93
2023-05-09T00:23:01.237Z,12.63
2023-05-09T00:25:28.304Z,20.53
2023-05-09T00:27:55.332Z,13.97
2023-05-09T00:30:22.361Z,15.13
2023-05-09T00:32:49.457Z,15.10
2023-05-09T00:35:16.717Z,15.47
2023-05-09T00:37:43.835Z,15.37
2023-05-09T00:40:11.581Z,17.33
2023-05-09T00:42:38.577Z,18.17
2023-05-09T00:45:07.085Z,21.63
2023-05-09T00:47:34.394Z,16.87
2023-05-09T00:50:02.430Z,21.80
2023-05-09T00:52:30.083Z,21.30
2023-05-09T00:54:57.736Z,22.50
2023-05-09T00:57:24.791Z,16.53
2023-05-09T00:59:51.827Z,17.00
2023-05-09T01:02:19.261Z,12.73
2023-05-09T01:04:47.284Z,15.67
2023-05-09T01:07:39.476Z,17.30
2023-05-09T01:10:36.993Z,21.20
2023-05-09T01:13:38.496Z,14.33
2023-05-09T01:16:26.622Z,23.53
2023-05-09T01:19:09.576Z,16.43
2023-05-09T01:21:40.741Z,22.93
2023-05-09T01:24:25.072Z,17.63
2023-05-09T01:27:36.340Z,21.90
2023-05-09T01:30:04.985Z,23.90
2023-05-09T01:32:36.495Z,21.37
2023-05-09T01:35:05.258Z,21.43
2023-05-09T01:37:39.709Z,23.87
2023-05-09T01:40:20.183Z,14.77
2023-05-09T01:43:00.138Z,22.87
2023-05-09T01:45:28.801Z,17.40
2023-05-09T01:47:58.292Z,16.90
2023-05-09T01:50:26.917Z,20.73
2023-05-09T01:52:57.786Z,24.23
2023-05-09T01:55:32.913Z,30.40
2023-05-09T01:58:01.208Z,19.70
2023-05-09T02:00:28.810Z,25.60
2023-05-09T02:02:57.707Z,23.40
2023-05-09T02:05:28.768Z,20.40
2023-05-09T02:07:58.576Z,19.23
2023-05-09T02:10:28.702Z,22.73
2023-05-09T02:12:57.306Z,20.13
2023-05-09T02:15:26.069Z,28.37
2023-05-09T02:17:53.237Z,25.43
2023-05-09T02:20:20.562Z,20.43
2023-05-09T02:22:48.420Z,25.60
2023-05-09T02:25:16.114Z,28.23
2023-05-09T02:27:46.179Z,22.47
2023-05-09T02:30:21.098Z,22.13
2023-05-09T02:32:50.806Z,23.27
2023-05-09T02:35:18.647Z,23.93
2023-05-09T02:37:47.512Z,28.43
2023-05-09T02:40:14.804Z,24.07
2023-05-09T02:42:41.988Z,21.23
2023-05-09T02:45:11.161Z,26.87
2023-05-09T02:47:39.345Z,25.67
2023-05-09T02:50:07.390Z,30.13
2023-05-09T02:52:34.465Z,29.20
2023-05-09T02:55:01.423Z,28.73
2023-05-09T02:57:28.381Z,27.03
2023-05-09T02:59:55.363Z,31.80
2023-05-09T03:02:23.800Z,34.60
2023-05-09T03:04:51.055Z,24.13
2023-05-09T03:07:18.103Z,25.73
2023-05-09T03:09:45.149Z,31.63
2023-05-09T03:12:12.237Z,30.80
2023-05-09T03:14:39.237Z,26.07
2023-05-09T03:17:06.292Z,31.27
2023-05-09T03:19:33.676Z,28.93
2023-05-09T03:22:00.710Z,28.10
2023-05-09T03:24:28.339Z,23.93
2023-05-09T03:26:55.610Z,28.10
2023-05-09T03:29:22.836Z,28.30
2023-05-09T03:31:49.930Z,26.93
2023-05-09T03:34:17.257Z,32.90
2023-05-09T03:36:44.715Z,27.53
2023-05-09T03:39:11.772Z,29.63
2023-05-09T03:41:38.841Z,28.73
2023-05-09T03:44:06.197Z,29.90
2023-05-09T03:46:33.284Z,22.80
2023-05-09T03:49:00.332Z,29.17
2023-05-09T03:51:27.333Z,27.07
2023-05-09T03:53:54.347Z,23.03
2023-05-09T03:56:21.290Z,21.83
2023-05-09T03:58:48.636Z,27.60
2023-05-09T04:01:16.203Z,24.85
2023-05-09T04:03:43.398Z,22.73
2023-05-09T04:06:10.701Z,19.10
2023-05-09T04:08:37.877Z,24.70
2023-05-09T04:11:04.977Z,21.13
2023-05-09T04:13:33.104Z,19.45
2023-05-09T04:16:00.121Z,30.05
2023-05-09T04:18:27.237Z,17.92
2023-05-09T04:20:54.273Z,16.33
2023-05-09T04:23:21.225Z,22.38
2023-05-09T04:25:50.332Z,21.25
2023-05-09T04:28:17.521Z,21.80
2023-05-09T04:30:44.549Z,18.55
2023-05-09T04:33:11.653Z,24.00
2023-05-09T04:35:38.863Z,19.77
2023-05-09T04:38:06.068Z,22.48
2023-05-09T04:40:33.482Z,21.02
2023-05-09T04:43:00.491Z,16.30
2023-05-09T04:45:27.785Z,18.40
2023-05-09T04:47:54.831Z,19.95
2023-05-09T04:50:21.887Z,21.17
2023-05-09T04:52:49.129Z,19.80
2023-05-09T04:55:16.451Z,22.63
2023-05-09T04:57:43.572Z,19.42
2023-05-09T05:00:11.997Z,18.15
2023-05-09T05:02:39.132Z,20.73
2023-05-09T05:05:12.100Z,23.20
2023-05-09T05:07:39.745Z,20.80
2023-05-09T05:10:07.611Z,19.13
2023-05-09T05:12:34.668Z,21.45
2023-05-09T05:15:01.678Z,18.23
2023-05-09T05:17:29.678Z,18.95
2023-05-09T05:19:56.986Z,21.10
2023-05-09T05:22:24.366Z,14.50
2023-05-09T05:24:51.414Z,11.77
2023-05-09T05:27:18.494Z,10.93
2023-05-09T05:29:45.470Z,10.65
2023-05-09T05:32:12.575Z,10.52
2023-05-09T05:34:39.769Z,10.43
2023-05-09T05:37:06.792Z,8.75
2023-05-09T05:39:33.822Z,16.17
2023-05-09T05:42:00.850Z,8.43
2023-05-09T05:44:27.828Z,9.85
2023-05-09T05:46:54.850Z,10.18
2023-05-09T05:49:21.879Z,8.60
2023-05-09T05:51:48.893Z,14.57
2023-05-09T05:54:15.863Z,7.13
2023-05-09T05:56:43.045Z,5.90
2023-05-09T05:59:12.556Z,7.72
2023-05-09T06:01:40.832Z,8.07
2023-05-09T06:04:08.074Z,11.35
2023-05-09T06:06:35.203Z,8.95
2023-05-09T06:09:02.199Z,10.60
2023-05-09T06:11:29.197Z,6.75
2023-05-09T06:13:56.269Z,8.50
2023-05-09T06:16:23.384Z,8.88
2023-05-09T06:18:51.155Z,10.02
2023-05-09T06:21:18.788Z,8.75
2023-05-09T06:23:57.820Z,8.57
2023-05-09T06:26:29.378Z,9.00
2023-05-09T06:28:56.446Z,8.68
2023-05-09T06:31:25.473Z,11.30
2023-05-09T06:33:53.202Z,8.98
2023-05-09T06:36:20.353Z,9.43
2023-05-09T06:38:47.412Z,9.30
2023-05-09T06:41:14.560Z,9.45
2023-05-09T06:43:41.579Z,9.00
2023-05-09T06:46:08.644Z,7.93
2023-05-09T06:48:35.780Z,9.13
2023-05-09T06:51:03.061Z,5.85
2023-05-09T06:53:30.027Z,4.63
2023-05-09T06:55:57.092Z,8.00
2023-05-09T06:58:24.204Z,8.10
2023-05-09T07:00:51.709Z,6.50
2023-05-09T07:03:18.732Z,9.75
2023-05-09T07:05:45.856Z,7.20
2023-05-09T07:08:12.810Z,6.40
2023-05-09T07:10:40.069Z,5.80
2023-05-09T07:13:07.176Z,8.85
2023-05-09T07:15:42.234Z,8.63
2023-05-09T07:18:10.093Z,6.65
2023-05-09T07:20:37.337Z,6.63
2023-05-09T07:23:06.017Z,5.68
2023-05-09T07:25:33.966Z,6.28
2023-05-09T07:28:01.193Z,6.85
2023-05-09T07:30:28.247Z,5.05
2023-05-09T07:32:55.356Z,7.45
2023-05-09T07:35:22.664Z,5.05
2023-05-09T07:37:49.717Z,8.63
2023-05-09T07:40:17.004Z,3.50
2023-05-09T07:42:50.022Z,4.18
2023-05-09T07:45:18.831Z,3.25
2023-05-09T07:47:47.050Z,6.28
2023-05-09T07:50:14.074Z,3.15
2023-05-09T07:52:41.196Z,2.67
2023-05-09T07:55:08.686Z,2.13
2023-05-09T07:57:35.691Z,3.22
2023-05-09T08:00:02.829Z,3.38
2023-05-09T08:02:29.851Z,6.93
2023-05-09T08:04:56.918Z,5.13
2023-05-09T08:07:23.885Z,2.63
2023-05-09T08:09:50.908Z,2.45
2023-05-09T08:12:17.981Z,5.45
2023-05-09T08:14:45.115Z,5.72
2023-05-09T08:17:12.149Z,4.07
2023-05-09T08:19:39.192Z,2.17
2023-05-09T08:22:06.154Z,3.67
2023-05-09T08:24:33.204Z,5.18
2023-05-09T08:27:00.762Z,3.40
2023-05-09T08:29:28.977Z,3.80
2023-05-09T08:31:56.102Z,3.20
2023-05-09T08:34:23.226Z,6.25
2023-05-09T08:36:50.237Z,3.67
2023-05-09T08:39:17.285Z,4.28
2023-05-09T08:41:44.579Z,2.70
2023-05-09T08:44:11.761Z,3.88
2023-05-09T08:46:43.758Z,4.20
2023-05-09T08:49:11.597Z,4.05
2023-05-09T08:51:39.740Z,6.53
2023-05-09T08:54:06.994Z,5.68
2023-05-09T08:56:35.525Z,2.58
2023-05-09T08:59:03.986Z,3.33
2023-05-09T09:01:33.270Z,10.32
2023-05-09T09:04:01.123Z,6.03
2023-05-09T09:06:30.230Z,2.92
2023-05-09T09:08:58.918Z,2.63
2023-05-09T09:11:28.638Z,5.55
2023-05-09T09:13:59.556Z,8.20
2023-05-09T09:16:28.893Z,2.63
2023-05-09T09:18:58.952Z,3.92
2023-05-09T09:21:27.425Z,3.03
2023-05-09T09:23:56.760Z,4.43
2023-05-09T09:26:24.786Z,2.58
2023-05-09T09:28:52.037Z,4.28
2023-05-09T09:31:26.009Z,5.25
2023-05-09T09:33:58.899Z,2.03
2023-05-09T09:36:32.324Z,5.70
2023-05-09T09:39:02.491Z,6.43
2023-05-09T09:41:37.104Z,2.58
2023-05-09T09:44:14.336Z,2.55
2023-05-09T09:46:55.881Z,3.78
2023-05-09T09:49:25.532Z,5.25
2023-05-09T09:51:58.032Z,5.78
2023-05-09T09:54:29.055Z,2.47
2023-05-09T09:56:56.542Z,4.10
2023-05-09T09:59:26.672Z,5.03
2023-05-09T10:02:01.889Z,4.32
2023-05-09T10:04:32.712Z,6.22
2023-05-09T10:07:06.425Z,1.98
2023-05-09T10:09:35.720Z,4.10
2023-05-09T10:12:06.291Z,4.38
2023-05-09T10:14:36.619Z,4.18
2023-05-09T10:17:05.933Z,6.55
2023-05-09T10:19:35.835Z,2.33
2023-05-09T10:22:11.940Z,3.47
2023-05-09T10:25:14.082Z,4.70
2023-05-09T10:27:46.784Z,4.32
2023-05-09T10:30:34.214Z,3.78
2023-05-09T10:33:10.475Z,2.08
2023-05-09T10:35:47.248Z,2.08
2023-05-09T10:38:14.553Z,2.97
2023-05-09T10:40:42.031Z,2.40
2023-05-09T10:43:09.065Z,6.80
2023-05-09T10:45:36.888Z,3.67
2023-05-09T10:48:08.855Z,5.18
2023-05-09T10:50:37.731Z,4.85
2023-05-09T10:53:04.868Z,3.60
2023-05-09T10:55:39.999Z,2.55
2023-05-09T10:58:28.876Z,2.53
2023-05-09T11:00:59.301Z,4.20
2023-05-09T11:03:28.190Z,4.50
2023-05-09T11:05:58.506Z,4.80
2023-05-09T11:08:31.315Z,7.35
2023-05-09T11:11:07.442Z,5.47
2023-05-09T11:13:38.505Z,3.72
2023-05-09T11:16:09.412Z,3.13
2023-05-09T11:18:52.032Z,5.20
2023-05-09T11:21:20.478Z,2.28
2023-05-09T11:23:49.091Z,7.20
2023-05-09T11:26:16.862Z,5.82
2023-05-09T11:28:53.965Z,6.50
2023-05-09T11:31:21.161Z,6.32
2023-05-09T11:33:55.182Z,5.40
2023-05-09T11:36:30.020Z,3.65
2023-05-09T11:39:11.465Z,3.85
2023-05-09T11:41:46.309Z,4.55
2023-05-09T11:44:21.350Z,5.50
2023-05-09T11:46:49.523Z,5.10
2023-05-09T11:49:17.789Z,2.42
2023-05-09T11:51:44.820Z,3.20
2023-05-09T11:54:13.687Z,2.38
2023-05-09T11:56:42.029Z,5.38
2023-05-09T11:59:10.597Z,3.58
2023-05-09T12:01:37.685Z,3.70
2023-05-09T12:04:08.399Z,3.22
2023-05-09T12:06:35.479Z,4.35
2023-05-09T12:09:02.603Z,2.70
2023-05-09T12:11:32.473Z,2.80
2023-05-09T12:13:59.685Z,5.85
2023-05-09T12:16:26.829Z,4.20
2023-05-09T12:18:54.355Z,3.88
2023-05-09T12:21:21.858Z,2.97
2023-05-09T12:23:51.298Z,5.22
2023-05-09T12:26:22.187Z,2.28
2023-05-09T12:28:50.117Z,6.03
2023-05-09T12:31:17.985Z,6.93
2023-05-09T12:33:45.253Z,5.22
2023-05-09T12:36:13.806Z,4.55
2023-05-09T12:38:40.961Z,3.53
2023-05-09T12:41:33.382Z,3.95
2023-05-09T12:43:59.155Z,4.03
2023-05-09T12:46:26.196Z,2.13
2023-05-09T12:48:55.288Z,8.43
2023-05-09T12:51:23.559Z,12.73
2023-05-09T12:53:50.596Z,2.05
2023-05-09T12:56:20.885Z,4.53
2023-05-09T12:58:53.422Z,5.78
2023-05-09T13:01:23.766Z,2.88
2023-05-09T13:04:05.916Z,3.70
2023-05-09T13:06:34.471Z,2.33
2023-05-09T13:09:06.149Z,6.57
2023-05-09T13:11:33.283Z,5.13
2023-05-09T13:14:00.428Z,3.33
2023-05-09T13:16:27.720Z,3.38
2023-05-09T13:18:54.767Z,6.88
2023-05-09T13:21:21.829Z,5.53
2023-05-09T13:23:50.241Z,2.40
2023-05-09T13:26:17.492Z,2.55
2023-05-09T13:28:44.548Z,3.28
2023-05-09T13:31:11.670Z,1.73
2023-05-09T13:33:38.826Z,3.60
2023-05-09T13:36:06.661Z,7.68
2023-05-09T13:38:37.167Z,3.78
2023-05-09T13:41:04.378Z,2.67
2023-05-09T13:43:31.359Z,7.43
2023-05-09T13:45:58.417Z,2.95
2023-05-09T13:48:25.416Z,2.70
2023-05-09T13:50:52.577Z,3.17
2023-05-09T13:53:20.020Z,3.42
2023-05-09T13:55:47.348Z,4.22
2023-05-09T13:58:14.380Z,2.05
2023-05-09T14:00:41.949Z,6.10
2023-05-09T14:03:09.758Z,2.58
2023-05-09T14:05:36.816Z,2.15
2023-05-09T14:08:03.969Z,7.30
2023-05-09T14:10:30.959Z,5.13
2023-05-09T14:12:58.777Z,4.35
2023-05-09T14:15:26.093Z,4.82
2023-05-09T14:17:53.142Z,4.93
2023-05-09T14:20:21.265Z,7.53
2023-05-09T14:22:48.331Z,11.80
2023-05-09T14:25:15.370Z,6.28
2023-05-09T14:27:42.377Z,7.28
2023-05-09T14:30:11.408Z,5.72
2023-05-09T14:32:38.411Z,4.82
2023-05-09T14:35:06.209Z,2.60
2023-05-09T14:37:33.854Z,4.38
2023-05-09T14:40:05.511Z,2.85
2023-05-09T14:42:32.963Z,3.65
2023-05-09T14:44:59.972Z,4.10
2023-05-09T14:47:27.093Z,2.35
2023-05-09T14:49:54.231Z,8.40
2023-05-09T14:52:21.223Z,4.63
2023-05-09T14:54:48.205Z,4.78
2023-05-09T14:57:15.155Z,10.43
2023-05-09T14:59:42.296Z,3.13
2023-05-09T15:02:09.256Z,10.80
2023-05-09T15:04:36.270Z,5.20
2023-05-09T15:07:03.277Z,2.88
2023-05-09T15:09:30.269Z,2.72
2023-05-09T15:11:57.249Z,3.70
2023-05-09T15:14:24.257Z,1.60
2023-05-09T15:16:55.385Z,4.55
2023-05-09T15:19:22.670Z,8.48
2023-05-09T15:21:49.833Z,2.90
2023-05-09T15:24:17.135Z,7.13
2023-05-09T15:26:44.323Z,7.60
2023-05-09T15:29:11.350Z,3.85
2023-05-09T15:31:38.517Z,4.78
2023-05-09T15:34:05.501Z,3.05
2023-05-09T15:36:34.015Z,4.68
2023-05-09T15:39:01.400Z,8.13
2023-05-09T15:41:28.755Z,3.85
2023-05-09T15:43:55.792Z,3.55
2023-05-09T15:46:22.968Z,3.72
2023-05-09T15:48:50.681Z,5.72
2023-05-09T15:51:17.751Z,6.32
2023-05-09T15:53:44.925Z,5.63
2023-05-09T15:56:11.933Z,3.92
2023-05-09T15:58:40.343Z,4.28
2023-05-09T16:01:08.276Z,3.90
2023-05-09T16:03:35.817Z,4.85
2023-05-09T16:06:03.362Z,2.63
2023-05-09T16:08:30.422Z,4.97
2023-05-09T16:11:00.818Z,5.05
2023-05-09T16:13:28.297Z,5.70
2023-05-09T16:15:55.692Z,5.15
2023-05-09T16:18:22.862Z,2.72
2023-05-09T16:20:49.891Z,2.45
2023-05-09T16:23:17.007Z,3.03
2023-05-09T16:25:45.045Z,4.15
2023-05-09T16:28:12.237Z,3.15
2023-05-09T16:30:39.250Z,2.47
2023-05-09T16:33:06.277Z,2.97
2023-05-09T16:35:33.967Z,6.95
2023-05-09T16:38:01.084Z,4.18
2023-05-09T16:40:28.594Z,4.55
2023-05-09T16:42:55.841Z,7.57
2023-05-09T16:45:22.891Z,3.00
2023-05-09T16:47:51.242Z,3.72
2023-05-09T16:50:18.448Z,4.63
2023-05-09T16:52:45.512Z,3.88
2023-05-09T16:55:12.595Z,4.30
2023-05-09T16:57:39.709Z,4.30
2023-05-09T17:00:09.851Z,6.95
2023-05-09T17:02:37.309Z,3.92
2023-05-09T17:05:05.134Z,3.08
2023-05-09T17:07:32.355Z,7.90
2023-05-09T17:09:59.583Z,4.60
2023-05-09T17:12:27.627Z,2.65
2023-05-09T17:14:54.703Z,7.40
2023-05-09T17:17:21.743Z,3.63
2023-05-09T17:19:48.901Z,5.85
2023-05-09T17:22:15.892Z,2.97
2023-05-09T17:24:42.945Z,5.25
2023-05-09T17:27:11.499Z,6.07
2023-05-09T17:29:38.549Z,5.18
2023-05-09T17:32:05.894Z,3.55
2023-05-09T17:34:33.513Z,7.88
2023-05-09T17:37:02.361Z,7.65
2023-05-09T17:39:29.613Z,5.85
2023-05-09T17:41:56.706Z,3.60
2023-05-09T17:44:24.119Z,4.50
2023-05-09T17:46:51.223Z,3.60
2023-05-09T17:49:18.424Z,3.83
2023-05-09T17:51:45.456Z,4.38
2023-05-09T17:54:12.979Z,2.30
2023-05-09T17:56:40.151Z,3.80
2023-05-09T18:01:35.068Z,3.58
2023-05-09T18:04:02.260Z,4.82
2023-05-09T18:06:29.445Z,3.13
2023-05-09T18:08:56.421Z,4.43
2023-05-09T18:11:24.575Z,8.20
2023-05-09T18:13:51.627Z,5.30
2023-05-09T18:16:18.683Z,3.90
2023-05-09T18:18:45.783Z,5.70
2023-05-09T18:21:13.073Z,4.55
2023-05-09T18:23:41.046Z,5.18
2023-05-09T18:26:08.614Z,5.15
2023-05-09T18:28:41.761Z,9.18
2023-05-09T18:31:11.666Z,4.57
2023-05-09T18:33:39.415Z,10.07
2023-05-09T18:36:11.230Z,3.47
2023-05-09T18:38:39.860Z,7.22
2023-05-09T18:41:15.610Z,6.03
2023-05-09T18:43:46.576Z,6.15
2023-05-09T18:46:17.638Z,4.03
2023-05-09T18:48:46.322Z,6.38
2023-05-09T18:51:13.439Z,6.05
2023-05-09T18:53:40.532Z,6.07
2023-05-09T18:56:07.778Z,5.65
2023-05-09T18:58:35.833Z,4.85
2023-05-09T19:01:03.060Z,4.70
2023-05-09T19:03:30.459Z,4.70
2023-05-09T19:05:59.820Z,5.13
2023-05-09T19:08:27.346Z,5.63
2023-05-09T19:10:54.383Z,10.77
2023-05-09T19:13:21.536Z,5.28
2023-05-09T19:15:48.650Z,7.18
2023-05-09T19:18:15.676Z,6.25
2023-05-09T19:20:46.569Z,5.03
2023-05-09T19:23:13.570Z,5.05
2023-05-09T19:25:40.632Z,8.15
2023-05-09T19:28:07.766Z,7.32
2023-05-09T19:30:35.963Z,9.00
2023-05-09T19:33:03.055Z,4.95
2023-05-09T19:35:30.098Z,5.05
2023-05-09T19:37:58.165Z,13.18
2023-05-09T19:40:25.160Z,9.48
2023-05-09T19:42:52.166Z,8.75
2023-05-09T19:45:19.977Z,10.65
2023-05-09T19:47:47.175Z,5.28
2023-05-09T19:50:14.451Z,11.85
2023-05-09T19:52:41.761Z,11.30
2023-05-09T19:55:09.814Z,9.52
2023-05-09T19:57:36.931Z,6.82
2023-05-09T20:00:07.032Z,5.63
2023-05-09T20:02:34.484Z,13.30
2023-05-09T20:05:01.598Z,6.25
2023-05-09T20:07:28.757Z,9.73
2023-05-09T20:09:55.875Z,7.03
2023-05-09T20:12:22.887Z,8.82
2023-05-09T20:14:49.891Z,7.00
2023-05-09T20:17:16.947Z,8.30
2023-05-09T20:19:45.081Z,6.10
2023-05-09T20:22:12.125Z,13.15
2023-05-09T20:24:39.170Z,6.68
2023-05-09T20:27:06.196Z,9.20
2023-05-09T20:29:33.261Z,8.95
2023-05-09T20:32:00.504Z,7.72
2023-05-09T20:34:27.612Z,12.43
2023-05-09T20:36:55.170Z,11.63
2023-05-09T20:39:23.166Z,9.88
2023-05-09T20:41:51.375Z,12.50
2023-05-09T20:44:19.216Z,17.23
2023-05-09T20:46:46.596Z,6.03
2023-05-09T20:49:13.801Z,6.93
2023-05-09T20:51:40.896Z,8.57
2023-05-09T20:54:08.115Z,6.88
2023-05-09T20:56:35.680Z,6.57
2023-05-09T20:59:04.209Z,8.93
2023-05-09T21:01:35.406Z,10.27
2023-05-09T21:04:08.267Z,8.80
2023-05-09T21:06:36.565Z,8.73
2023-05-09T21:09:09.260Z,8.23
2023-05-09T21:11:37.287Z,8.73
2023-05-09T21:14:04.263Z,12.73
2023-05-09T21:16:31.593Z,9.90
2023-05-09T21:19:02.484Z,10.05
2023-05-09T21:21:31.603Z,9.65
2023-05-09T21:23:59.621Z,8.68
2023-05-09T21:26:26.730Z,9.70
2023-05-09T21:28:53.805Z,7.32
2023-05-09T21:31:20.979Z,8.50
2023-05-09T21:33:48.040Z,7.03
2023-05-09T21:36:15.048Z,10.20
2023-05-09T21:38:42.111Z,9.57
2023-05-09T21:41:10.159Z,7.20
2023-05-09T21:43:37.732Z,11.10
2023-05-09T21:46:06.094Z,7.85
2023-05-09T21:48:33.258Z,6.45
2023-05-09T21:51:03.957Z,7.18
2023-05-09T21:53:31.193Z,6.78
2023-05-09T21:55:58.188Z,6.28
2023-05-09T21:58:25.295Z,5.60
2023-05-09T22:00:52.261Z,7.70
2023-05-09T22:03:19.440Z,7.15
2023-05-09T22:05:46.530Z,10.48
2023-05-09T22:08:13.629Z,9.48
2023-05-09T22:10:40.923Z,9.60
2023-05-09T22:13:08.675Z,7.40
2023-05-09T22:15:35.703Z,14.00
2023-05-09T22:18:02.788Z,8.40
2023-05-09T22:20:29.888Z,6.47
2023-05-09T22:22:57.021Z,7.25
2023-05-09T22:25:23.976Z,10.95
2023-05-09T22:27:51.230Z,9.65
2023-05-09T22:30:18.418Z,7.75
2023-05-09T22:32:45.983Z,5.80
2023-05-09T22:35:13.085Z,7.88
2023-05-09T22:37:40.143Z,6.03
2023-05-09T22:40:09.342Z,10.80
2023-05-09T22:42:36.603Z,8.23
2023-05-09T22:45:03.899Z,8.50
2023-05-09T22:47:30.942Z,7.20
2023-05-09T22:49:58.108Z,7.07
2023-05-09T22:52:25.192Z,7.18
2023-05-09T22:54:52.583Z,9.65
2023-05-09T22:57:20.563Z,9.80
2023-05-09T22:59:47.634Z,12.55
2023-05-09T23:02:14.720Z,10.45
2023-05-09T23:04:41.890Z,10.23
2023-05-09T23:07:08.903Z,9.67
2023-05-09T23:09:35.924Z,8.80
2023-05-09T23:12:03.625Z,8.82
2023-05-09T23:14:30.681Z,13.35
2023-05-09T23:16:57.658Z,10.70
2023-05-09T23:19:24.736Z,8.98
2023-05-09T23:21:51.831Z,11.43
2023-05-09T23:24:18.949Z,12.17
2023-05-09T23:26:45.952Z,13.00
2023-05-09T23:29:13.022Z,16.40
2023-05-09T23:31:40.140Z,13.70
2023-05-09T23:34:07.156Z,16.63
2023-05-09T23:36:34.136Z,11.10
2023-05-09T23:39:01.168Z,10.20
2023-05-09T23:41:28.145Z,9.70
2023-05-09T23:43:57.965Z,9.53
2023-05-09T23:46:25.118Z,10.63
2023-05-09T23:48:52.175Z,9.13
2023-05-09T23:51:20.590Z,8.30
2023-05-09T23:53:47.641Z,9.97
2023-05-09T23:56:15.120Z,10.50
2023-05-09T23:58:42.788Z,8.33
